sensor_id;sensor_type;location;lat;lon;timestamp;temperature;humidity
5802;DHT22;2927;49.366;8.530;2022-12-05T00:01:31;3.70;99.90
5802;DHT22;2927;49.366;8.530;2022-12-05T00:04:01;3.60;99.90
5802;DHT22;2927;49.366;8.530;2022-12-05T00:06:28;3.60;99.90
5802;DHT22;2927;49.366;8.530;2022-12-05T00:08:55;3.60;99.90
5802;DHT22;2927;49.366;8.530;2022-12-05T00:11:24;3.70;99.90
5802;DHT22;2927;49.366;8.530;2022-12-05T00:13:52;3.70;99.90
5802;DHT22;2927;49.366;8.530;2022-12-05T00:16:19;3.70;99.90
5802;DHT22;2927;49.366;8.530;2022-12-05T00:18:46;3.70;99.90
5802;DHT22;2927;49.366;8.530;2022-12-05T00:21:14;3.70;99.90
5802;DHT22;2927;49.366;8.530;2022-12-05T00:23:40;3.80;99.90
5802;DHT22;2927;49.366;8.530;2022-12-05T00:26:06;3.80;99.90
5802;DHT22;2927;49.366;8.530;2022-12-05T00:28:33;3.80;99.90
5802;DHT22;2927;49.366;8.530;2022-12-05T00:31:03;3.60;99.90
5802;DHT22;2927;49.366;8.530;2022-12-05T00:33:29;3.70;99.90
5802;DHT22;2927;49.366;8.530;2022-12-05T00:35:54;3.70;99.90
5802;DHT22;2927;49.366;8.530;2022-12-05T00:38:20;3.70;99.90
5802;DHT22;2927;49.366;8.530;2022-12-05T00:40:45;3.70;99.90
5802;DHT22;2927;49.366;8.530;2022-12-05T00:43:11;3.60;99.90
5802;DHT22;2927;49.366;8.530;2022-12-05T00:45:36;3.60;99.90
5802;DHT22;2927;49.366;8.530;2022-12-05T00:48:02;3.70;99.90
5802;DHT22;2927;49.366;8.530;2022-12-05T00:50:28;3.70;99.90
5802;DHT22;2927;49.366;8.530;2022-12-05T00:52:53;3.70;99.90
5802;DHT22;2927;49.366;8.530;2022-12-05T00:55:19;3.70;99.90
5802;DHT22;2927;49.366;8.530;2022-12-05T00:57:44;3.80;99.90
5802;DHT22;2927;49.366;8.530;2022-12-05T01:00:10;3.80;99.90
5802;DHT22;2927;49.366;8.530;2022-12-05T01:02:36;3.80;99.90
5802;DHT22;2927;49.366;8.530;2022-12-05T01:05:01;3.90;99.90
5802;DHT22;2927;49.366;8.530;2022-12-05T01:07:27;3.80;99.90
5802;DHT22;2927;49.366;8.530;2022-12-05T01:09:52;3.90;99.90
5802;DHT22;2927;49.366;8.530;2022-12-05T01:12:18;3.80;99.90
5802;DHT22;2927;49.366;8.530;2022-12-05T01:14:43;3.80;99.90
5802;DHT22;2927;49.366;8.530;2022-12-05T01:17:09;3.90;99.90
5802;DHT22;2927;49.366;8.530;2022-12-05T01:19:35;3.90;99.90
5802;DHT22;2927;49.366;8.530;2022-12-05T01:22:00;3.90;99.90
5802;DHT22;2927;49.366;8.530;2022-12-05T01:24:27;3.90;99.90
5802;DHT22;2927;49.366;8.530;2022-12-05T01:26:54;3.80;99.90
5802;DHT22;2927;49.366;8.530;2022-12-05T01:29:21;3.90;99.90
5802;DHT22;2927;49.366;8.530;2022-12-05T01:31:47;3.90;99.90
5802;DHT22;2927;49.366;8.530;2022-12-05T01:34:14;3.80;99.90
5802;DHT22;2927;49.366;8.530;2022-12-05T01:36:40;3.80;99.90
5802;DHT22;2927;49.366;8.530;2022-12-05T01:39:08;3.80;99.90
5802;DHT22;2927;49.366;8.530;2022-12-05T01:41:36;3.80;99.90
5802;DHT22;2927;49.366;8.530;2022-12-05T01:46:52;3.90;99.90
5802;DHT22;2927;49.366;8.530;2022-12-05T01:49:32;3.90;99.90
5802;DHT22;2927;49.366;8.530;2022-12-05T01:52:20;3.80;99.90
5802;DHT22;2927;49.366;8.530;2022-12-05T01:54:50;3.90;99.90
5802;DHT22;2927;49.366;8.530;2022-12-05T01:57:18;3.90;99.90
5802;DHT22;2927;49.366;8.530;2022-12-05T01:59:48;3.90;99.90
5802;DHT22;2927;49.366;8.530;2022-12-05T02:02:14;3.90;99.90
5802;DHT22;2927;49.366;8.530;2022-12-05T02:04:50;3.90;99.90
5802;DHT22;2927;49.366;8.530;2022-12-05T02:07:20;3.80;99.90
5802;DHT22;2927;49.366;8.530;2022-12-05T02:09:48;3.80;99.90
5802;DHT22;2927;49.366;8.530;2022-12-05T02:12:15;3.80;99.90
5802;DHT22;2927;49.366;8.530;2022-12-05T02:18:15;3.80;99.90
5802;DHT22;2927;49.366;8.530;2022-12-05T02:23:51;3.90;99.90
5802;DHT22;2927;49.366;8.530;2022-12-05T02:31:44;4.00;99.90
5802;DHT22;2927;49.366;8.530;2022-12-05T02:36:56;4.00;99.90
5802;DHT22;2927;49.366;8.530;2022-12-05T02:42:17;4.00;99.90
5802;DHT22;2927;49.366;8.530;2022-12-05T02:47:50;3.90;99.90
5802;DHT22;2927;49.366;8.530;2022-12-05T02:50:21;3.80;99.90
5802;DHT22;2927;49.366;8.530;2022-12-05T02:52:48;3.70;99.90
5802;DHT22;2927;49.366;8.530;2022-12-05T02:55:15;3.70;99.90
5802;DHT22;2927;49.366;8.530;2022-12-05T02:57:49;3.70;99.90
5802;DHT22;2927;49.366;8.530;2022-12-05T03:00:17;3.70;99.90
5802;DHT22;2927;49.366;8.530;2022-12-05T03:02:43;3.70;99.90
5802;DHT22;2927;49.366;8.530;2022-12-05T03:05:36;3.70;99.90
5802;DHT22;2927;49.366;8.530;2022-12-05T03:08:08;3.70;99.90
5802;DHT22;2927;49.366;8.530;2022-12-05T03:10:36;3.70;99.90
5802;DHT22;2927;49.366;8.530;2022-12-05T03:13:08;3.80;99.90
5802;DHT22;2927;49.366;8.530;2022-12-05T03:15:38;3.80;99.90
5802;DHT22;2927;49.366;8.530;2022-12-05T03:20:47;3.80;99.90
5802;DHT22;2927;49.366;8.530;2022-12-05T03:24:19;3.80;99.90
5802;DHT22;2927;49.366;8.530;2022-12-05T03:26:27;3.80;99.90
5802;DHT22;2927;49.366;8.530;2022-12-05T03:29:25;3.80;99.90
5802;DHT22;2927;49.366;8.530;2022-12-05T03:32:12;3.80;99.90
5802;DHT22;2927;49.366;8.530;2022-12-05T03:37:42;3.80;99.90
5802;DHT22;2927;49.366;8.530;2022-12-05T03:40:20;3.80;99.90
5802;DHT22;2927;49.366;8.530;2022-12-05T03:45:48;3.70;99.90
5802;DHT22;2927;49.366;8.530;2022-12-05T03:51:05;3.80;99.90
5802;DHT22;2927;49.366;8.530;2022-12-05T03:54:03;3.80;99.90
5802;DHT22;2927;49.366;8.530;2022-12-05T03:56:37;3.70;99.90
5802;DHT22;2927;49.366;8.530;2022-12-05T03:59:12;3.70;99.90
5802;DHT22;2927;49.366;8.530;2022-12-05T04:01:39;3.70;99.90
5802;DHT22;2927;49.366;8.530;2022-12-05T04:04:21;3.70;99.90
5802;DHT22;2927;49.366;8.530;2022-12-05T04:06:51;3.70;99.90
5802;DHT22;2927;49.366;8.530;2022-12-05T04:09:22;3.70;99.90
5802;DHT22;2927;49.366;8.530;2022-12-05T04:11:53;3.70;99.90
5802;DHT22;2927;49.366;8.530;2022-12-05T04:14:41;3.70;99.90
5802;DHT22;2927;49.366;8.530;2022-12-05T04:17:23;3.80;99.90
5802;DHT22;2927;49.366;8.530;2022-12-05T04:20:01;3.80;99.90
5802;DHT22;2927;49.366;8.530;2022-12-05T04:22:47;3.80;99.90
5802;DHT22;2927;49.366;8.530;2022-12-05T04:25:14;3.80;99.90
5802;DHT22;2927;49.366;8.530;2022-12-05T04:34:11;3.90;99.90
5802;DHT22;2927;49.366;8.530;2022-12-05T04:41:14;3.90;99.90
5802;DHT22;2927;49.366;8.530;2022-12-05T04:43:42;3.90;99.90
5802;DHT22;2927;49.366;8.530;2022-12-05T04:46:11;3.90;99.90
5802;DHT22;2927;49.366;8.530;2022-12-05T04:48:38;3.90;99.90
5802;DHT22;2927;49.366;8.530;2022-12-05T04:51:07;3.90;99.90
5802;DHT22;2927;49.366;8.530;2022-12-05T04:53:34;3.90;99.90
5802;DHT22;2927;49.366;8.530;2022-12-05T04:56:02;3.90;99.90
5802;DHT22;2927;49.366;8.530;2022-12-05T04:58:29;4.00;99.90
5802;DHT22;2927;49.366;8.530;2022-12-05T05:06:03;4.00;99.90
5802;DHT22;2927;49.366;8.530;2022-12-05T05:08:29;4.10;99.90
5802;DHT22;2927;49.366;8.530;2022-12-05T05:11:11;4.10;99.90
5802;DHT22;2927;49.366;8.530;2022-12-05T05:13:38;4.10;99.90
5802;DHT22;2927;49.366;8.530;2022-12-05T05:16:03;4.10;99.90
5802;DHT22;2927;49.366;8.530;2022-12-05T05:18:29;4.10;99.90
5802;DHT22;2927;49.366;8.530;2022-12-05T05:20:55;4.10;99.90
5802;DHT22;2927;49.366;8.530;2022-12-05T05:23:20;4.10;99.90
5802;DHT22;2927;49.366;8.530;2022-12-05T05:25:51;4.10;99.90
5802;DHT22;2927;49.366;8.530;2022-12-05T05:28:17;4.10;99.90
5802;DHT22;2927;49.366;8.530;2022-12-05T05:30:42;4.00;99.90
5802;DHT22;2927;49.366;8.530;2022-12-05T05:33:08;4.00;99.90
5802;DHT22;2927;49.366;8.530;2022-12-05T05:35:37;4.00;99.90
5802;DHT22;2927;49.366;8.530;2022-12-05T05:38:03;4.00;99.90
5802;DHT22;2927;49.366;8.530;2022-12-05T05:40:29;4.00;99.90
5802;DHT22;2927;49.366;8.530;2022-12-05T05:42:55;3.90;99.90
5802;DHT22;2927;49.366;8.530;2022-12-05T05:45:20;3.90;99.90
5802;DHT22;2927;49.366;8.530;2022-12-05T05:47:49;3.90;99.90
5802;DHT22;2927;49.366;8.530;2022-12-05T05:50:15;3.90;99.90
5802;DHT22;2927;49.366;8.530;2022-12-05T05:52:40;3.90;99.90
5802;DHT22;2927;49.366;8.530;2022-12-05T05:55:07;3.90;99.90
5802;DHT22;2927;49.366;8.530;2022-12-05T05:57:33;4.00;99.90
5802;DHT22;2927;49.366;8.530;2022-12-05T05:59:58;4.00;99.90
5802;DHT22;2927;49.366;8.530;2022-12-05T06:02:24;4.00;99.90
5802;DHT22;2927;49.366;8.530;2022-12-05T06:04:50;4.00;99.90
5802;DHT22;2927;49.366;8.530;2022-12-05T06:07:15;4.00;99.90
5802;DHT22;2927;49.366;8.530;2022-12-05T06:09:41;3.90;99.90
5802;DHT22;2927;49.366;8.530;2022-12-05T06:12:07;4.00;99.90
5802;DHT22;2927;49.366;8.530;2022-12-05T06:14:33;4.00;99.90
5802;DHT22;2927;49.366;8.530;2022-12-05T06:16:58;4.10;99.90
5802;DHT22;2927;49.366;8.530;2022-12-05T06:19:24;4.10;99.90
5802;DHT22;2927;49.366;8.530;2022-12-05T06:21:49;4.10;99.90
5802;DHT22;2927;49.366;8.530;2022-12-05T06:24:16;4.00;99.90
5802;DHT22;2927;49.366;8.530;2022-12-05T06:26:42;4.00;99.90
5802;DHT22;2927;49.366;8.530;2022-12-05T06:29:08;3.90;99.90
5802;DHT22;2927;49.366;8.530;2022-12-05T06:31:33;3.90;99.90
5802;DHT22;2927;49.366;8.530;2022-12-05T06:34:00;4.00;99.90
5802;DHT22;2927;49.366;8.530;2022-12-05T06:36:27;4.00;99.90
5802;DHT22;2927;49.366;8.530;2022-12-05T06:38:57;4.00;99.90
5802;DHT22;2927;49.366;8.530;2022-12-05T06:41:23;4.00;99.90
5802;DHT22;2927;49.366;8.530;2022-12-05T06:43:51;4.00;99.90
5802;DHT22;2927;49.366;8.530;2022-12-05T06:46:19;4.00;99.90
5802;DHT22;2927;49.366;8.530;2022-12-05T06:48:45;4.00;99.90
5802;DHT22;2927;49.366;8.530;2022-12-05T06:51:14;4.00;99.90
5802;DHT22;2927;49.366;8.530;2022-12-05T06:53:40;4.00;99.90
5802;DHT22;2927;49.366;8.530;2022-12-05T06:56:08;4.00;99.90
5802;DHT22;2927;49.366;8.530;2022-12-05T06:58:38;4.00;99.90
5802;DHT22;2927;49.366;8.530;2022-12-05T07:01:04;4.00;99.90
5802;DHT22;2927;49.366;8.530;2022-12-05T07:03:48;4.00;99.90
5802;DHT22;2927;49.366;8.530;2022-12-05T07:06:14;4.10;99.90
5802;DHT22;2927;49.366;8.530;2022-12-05T07:08:40;4.00;99.90
5802;DHT22;2927;49.366;8.530;2022-12-05T07:11:06;4.10;99.90
5802;DHT22;2927;49.366;8.530;2022-12-05T07:13:32;4.10;99.90
5802;DHT22;2927;49.366;8.530;2022-12-05T07:15:58;4.10;99.90
5802;DHT22;2927;49.366;8.530;2022-12-05T07:18:24;4.00;99.90
5802;DHT22;2927;49.366;8.530;2022-12-05T07:21:05;4.00;99.90
5802;DHT22;2927;49.366;8.530;2022-12-05T07:23:31;4.00;99.90
5802;DHT22;2927;49.366;8.530;2022-12-05T07:25:57;4.00;99.90
5802;DHT22;2927;49.366;8.530;2022-12-05T07:28:23;4.10;99.90
5802;DHT22;2927;49.366;8.530;2022-12-05T07:30:57;4.10;99.90
5802;DHT22;2927;49.366;8.530;2022-12-05T07:33:23;4.10;99.90
5802;DHT22;2927;49.366;8.530;2022-12-05T07:35:48;4.20;99.90
5802;DHT22;2927;49.366;8.530;2022-12-05T07:38:14;4.20;99.90
5802;DHT22;2927;49.366;8.530;2022-12-05T07:40:39;4.20;99.90
5802;DHT22;2927;49.366;8.530;2022-12-05T07:43:05;4.10;99.90
5802;DHT22;2927;49.366;8.530;2022-12-05T07:45:33;4.20;99.90
5802;DHT22;2927;49.366;8.530;2022-12-05T07:47:58;4.10;99.90
5802;DHT22;2927;49.366;8.530;2022-12-05T07:50:23;4.20;99.90
5802;DHT22;2927;49.366;8.530;2022-12-05T07:52:49;4.20;99.90
5802;DHT22;2927;49.366;8.530;2022-12-05T07:55:15;4.30;99.90
5802;DHT22;2927;49.366;8.530;2022-12-05T07:57:41;4.30;99.90
5802;DHT22;2927;49.366;8.530;2022-12-05T08:00:06;4.20;99.90
5802;DHT22;2927;49.366;8.530;2022-12-05T08:02:32;4.20;99.90
5802;DHT22;2927;49.366;8.530;2022-12-05T08:04:58;4.20;99.90
5802;DHT22;2927;49.366;8.530;2022-12-05T08:07:23;4.30;99.90
5802;DHT22;2927;49.366;8.530;2022-12-05T08:09:49;4.30;99.90
5802;DHT22;2927;49.366;8.530;2022-12-05T08:12:14;4.30;99.90
5802;DHT22;2927;49.366;8.530;2022-12-05T08:14:40;4.40;99.90
5802;DHT22;2927;49.366;8.530;2022-12-05T08:17:05;4.40;99.90
5802;DHT22;2927;49.366;8.530;2022-12-05T08:19:31;4.50;99.90
5802;DHT22;2927;49.366;8.530;2022-12-05T08:21:56;4.50;99.90
5802;DHT22;2927;49.366;8.530;2022-12-05T08:24:23;4.50;99.90
5802;DHT22;2927;49.366;8.530;2022-12-05T08:26:49;4.50;99.90
5802;DHT22;2927;49.366;8.530;2022-12-05T08:29:15;4.50;99.90
5802;DHT22;2927;49.366;8.530;2022-12-05T08:31:46;4.50;99.90
5802;DHT22;2927;49.366;8.530;2022-12-05T08:34:13;4.50;99.90
5802;DHT22;2927;49.366;8.530;2022-12-05T08:36:39;4.50;99.90
5802;DHT22;2927;49.366;8.530;2022-12-05T08:39:06;4.50;99.90
5802;DHT22;2927;49.366;8.530;2022-12-05T08:41:32;4.40;99.90
5802;DHT22;2927;49.366;8.530;2022-12-05T08:44:03;4.50;99.90
5802;DHT22;2927;49.366;8.530;2022-12-05T08:46:35;4.50;99.90
5802;DHT22;2927;49.366;8.530;2022-12-05T08:49:02;4.60;99.90
5802;DHT22;2927;49.366;8.530;2022-12-05T08:51:27;4.60;99.90
5802;DHT22;2927;49.366;8.530;2022-12-05T08:53:53;4.60;99.90
5802;DHT22;2927;49.366;8.530;2022-12-05T08:56:20;4.70;99.90
5802;DHT22;2927;49.366;8.530;2022-12-05T08:58:46;4.60;99.90
5802;DHT22;2927;49.366;8.530;2022-12-05T09:01:14;4.50;99.90
5802;DHT22;2927;49.366;8.530;2022-12-05T09:03:40;4.50;99.90
5802;DHT22;2927;49.366;8.530;2022-12-05T09:06:17;4.40;99.90
5802;DHT22;2927;49.366;8.530;2022-12-05T09:08:44;4.40;99.90
5802;DHT22;2927;49.366;8.530;2022-12-05T09:11:12;4.40;99.90
5802;DHT22;2927;49.366;8.530;2022-12-05T09:13:38;4.40;99.90
5802;DHT22;2927;49.366;8.530;2022-12-05T09:18:31;4.50;99.90
5802;DHT22;2927;49.366;8.530;2022-12-05T09:20:57;4.50;99.90
5802;DHT22;2927;49.366;8.530;2022-12-05T09:23:22;4.60;99.90
5802;DHT22;2927;49.366;8.530;2022-12-05T09:25:54;4.50;99.90
5802;DHT22;2927;49.366;8.530;2022-12-05T09:28:22;4.50;99.90
5802;DHT22;2927;49.366;8.530;2022-12-05T09:31:03;4.60;99.90
5802;DHT22;2927;49.366;8.530;2022-12-05T09:33:31;4.60;99.90
5802;DHT22;2927;49.366;8.530;2022-12-05T09:35:57;4.50;99.90
5802;DHT22;2927;49.366;8.530;2022-12-05T09:38:23;4.60;99.90
5802;DHT22;2927;49.366;8.530;2022-12-05T09:41:10;4.60;99.90
5802;DHT22;2927;49.366;8.530;2022-12-05T09:46:59;4.80;99.90
5802;DHT22;2927;49.366;8.530;2022-12-05T09:49:28;4.70;99.90
5802;DHT22;2927;49.366;8.530;2022-12-05T09:51:54;4.80;99.90
5802;DHT22;2927;49.366;8.530;2022-12-05T09:54:22;4.80;99.90
5802;DHT22;2927;49.366;8.530;2022-12-05T09:56:50;4.80;99.90
5802;DHT22;2927;49.366;8.530;2022-12-05T09:59:18;4.80;99.90
5802;DHT22;2927;49.366;8.530;2022-12-05T10:01:47;4.80;99.90
5802;DHT22;2927;49.366;8.530;2022-12-05T10:13:19;4.90;99.90
5802;DHT22;2927;49.366;8.530;2022-12-05T10:15:50;4.90;99.90
5802;DHT22;2927;49.366;8.530;2022-12-05T10:21:23;4.90;99.90
5802;DHT22;2927;49.366;8.530;2022-12-05T10:24:05;5.00;99.90
5802;DHT22;2927;49.366;8.530;2022-12-05T10:26:44;5.00;99.90
5802;DHT22;2927;49.366;8.530;2022-12-05T10:29:24;5.00;99.90
5802;DHT22;2927;49.366;8.530;2022-12-05T10:31:55;5.10;99.90
5802;DHT22;2927;49.366;8.530;2022-12-05T10:34:37;5.10;99.90
5802;DHT22;2927;49.366;8.530;2022-12-05T10:37:14;5.10;99.90
5802;DHT22;2927;49.366;8.530;2022-12-05T10:39:41;5.10;99.90
5802;DHT22;2927;49.366;8.530;2022-12-05T10:42:27;5.10;99.90
5802;DHT22;2927;49.366;8.530;2022-12-05T10:44:59;5.10;99.90
5802;DHT22;2927;49.366;8.530;2022-12-05T10:47:27;5.00;99.90
5802;DHT22;2927;49.366;8.530;2022-12-05T10:49:55;5.00;99.90
5802;DHT22;2927;49.366;8.530;2022-12-05T10:52:23;5.00;99.90
5802;DHT22;2927;49.366;8.530;2022-12-05T10:54:56;4.90;99.90
5802;DHT22;2927;49.366;8.530;2022-12-05T10:57:26;5.00;99.90
5802;DHT22;2927;49.366;8.530;2022-12-05T10:59:52;5.00;99.90
5802;DHT22;2927;49.366;8.530;2022-12-05T11:02:26;5.00;99.90
5802;DHT22;2927;49.366;8.530;2022-12-05T11:04:53;5.10;99.90
5802;DHT22;2927;49.366;8.530;2022-12-05T11:07:29;5.10;99.90
5802;DHT22;2927;49.366;8.530;2022-12-05T11:09:56;5.10;99.90
5802;DHT22;2927;49.366;8.530;2022-12-05T11:15:22;5.00;99.90
5802;DHT22;2927;49.366;8.530;2022-12-05T11:17:50;5.10;99.90
5802;DHT22;2927;49.366;8.530;2022-12-05T11:22:42;5.10;99.90
5802;DHT22;2927;49.366;8.530;2022-12-05T11:28:40;5.10;99.90
5802;DHT22;2927;49.366;8.530;2022-12-05T11:33:38;5.10;99.90
5802;DHT22;2927;49.366;8.530;2022-12-05T11:36:12;5.10;99.90
5802;DHT22;2927;49.366;8.530;2022-12-05T11:38:39;5.20;99.90
5802;DHT22;2927;49.366;8.530;2022-12-05T11:44:42;5.10;99.90
5802;DHT22;2927;49.366;8.530;2022-12-05T11:47:15;5.20;99.90
5802;DHT22;2927;49.366;8.530;2022-12-05T11:55:15;5.30;99.90
5802;DHT22;2927;49.366;8.530;2022-12-05T11:58:05;5.30;99.90
5802;DHT22;2927;49.366;8.530;2022-12-05T12:03:31;5.30;99.90
5802;DHT22;2927;49.366;8.530;2022-12-05T12:06:28;5.30;99.90
5802;DHT22;2927;49.366;8.530;2022-12-05T12:09:29;5.30;99.90
5802;DHT22;2927;49.366;8.530;2022-12-05T12:20:30;5.30;99.90
5802;DHT22;2927;49.366;8.530;2022-12-05T12:23:27;5.40;99.90
5802;DHT22;2927;49.366;8.530;2022-12-05T12:35:15;5.70;99.90
5802;DHT22;2927;49.366;8.530;2022-12-05T12:40:27;5.80;99.90
5802;DHT22;2927;49.366;8.530;2022-12-05T12:43:06;5.80;99.90
5802;DHT22;2927;49.366;8.530;2022-12-05T12:45:55;5.80;99.90
5802;DHT22;2927;49.366;8.530;2022-12-05T12:48:38;5.90;99.90
5802;DHT22;2927;49.366;8.530;2022-12-05T12:51:11;5.90;99.90
5802;DHT22;2927;49.366;8.530;2022-12-05T13:02:37;5.80;99.90
5802;DHT22;2927;49.366;8.530;2022-12-05T13:05:31;5.80;99.90
5802;DHT22;2927;49.366;8.530;2022-12-05T13:08:43;5.80;99.90
5802;DHT22;2927;49.366;8.530;2022-12-05T13:10:50;5.80;99.90
5802;DHT22;2927;49.366;8.530;2022-12-05T13:13:22;5.70;99.90
5802;DHT22;2927;49.366;8.530;2022-12-05T13:15:52;5.70;99.90
5802;DHT22;2927;49.366;8.530;2022-12-05T13:18:24;5.80;99.90
5802;DHT22;2927;49.366;8.530;2022-12-05T13:21:05;5.80;99.90
5802;DHT22;2927;49.366;8.530;2022-12-05T13:23:35;5.80;99.90
5802;DHT22;2927;49.366;8.530;2022-12-05T13:26:07;5.80;99.90
5802;DHT22;2927;49.366;8.530;2022-12-05T13:28:50;5.80;99.90
5802;DHT22;2927;49.366;8.530;2022-12-05T13:31:18;5.80;99.90
5802;DHT22;2927;49.366;8.530;2022-12-05T13:33:46;5.80;99.90
5802;DHT22;2927;49.366;8.530;2022-12-05T13:36:18;5.90;99.90
5802;DHT22;2927;49.366;8.530;2022-12-05T13:39:21;5.90;99.90
5802;DHT22;2927;49.366;8.530;2022-12-05T13:42:19;5.90;99.90
5802;DHT22;2927;49.366;8.530;2022-12-05T13:45:06;5.80;99.90
5802;DHT22;2927;49.366;8.530;2022-12-05T13:47:39;5.80;99.90
5802;DHT22;2927;49.366;8.530;2022-12-05T13:50:18;5.80;99.90
5802;DHT22;2927;49.366;8.530;2022-12-05T13:52:58;5.80;99.90
5802;DHT22;2927;49.366;8.530;2022-12-05T13:55:28;5.90;99.90
5802;DHT22;2927;49.366;8.530;2022-12-05T13:57:58;5.90;99.90
5802;DHT22;2927;49.366;8.530;2022-12-05T14:00:27;5.90;99.90
5802;DHT22;2927;49.366;8.530;2022-12-05T14:02:55;6.00;99.90
5802;DHT22;2927;49.366;8.530;2022-12-05T14:07:54;6.10;99.90
5802;DHT22;2927;49.366;8.530;2022-12-05T14:13:42;6.10;44.60
5802;DHT22;2927;49.366;8.530;2022-12-05T14:15:43;6.10;49.70
5802;DHT22;2927;49.366;8.530;2022-12-05T14:20:49;6.00;37.90
5802;DHT22;2927;49.366;8.530;2022-12-05T14:23:34;6.00;74.70
5802;DHT22;2927;49.366;8.530;2022-12-05T14:32:17;6.10;99.60
5802;DHT22;2927;49.366;8.530;2022-12-05T14:37:28;6.00;92.70
5802;DHT22;2927;49.366;8.530;2022-12-05T14:39:57;6.00;99.90
5802;DHT22;2927;49.366;8.530;2022-12-05T14:42:28;6.00;91.40
5802;DHT22;2927;49.366;8.530;2022-12-05T14:45:01;6.00;89.40
5802;DHT22;2927;49.366;8.530;2022-12-05T14:47:31;6.00;99.90
5802;DHT22;2927;49.366;8.530;2022-12-05T14:53:17;6.00;99.90
5802;DHT22;2927;49.366;8.530;2022-12-05T14:55:52;5.90;62.70
5802;DHT22;2927;49.366;8.530;2022-12-05T14:58:25;5.90;92.20
5802;DHT22;2927;49.366;8.530;2022-12-05T15:00:59;5.90;99.90
5802;DHT22;2927;49.366;8.530;2022-12-05T15:03:30;5.90;99.90
5802;DHT22;2927;49.366;8.530;2022-12-05T15:05:57;5.90;99.90
5802;DHT22;2927;49.366;8.530;2022-12-05T15:08:25;5.90;99.90
5802;DHT22;2927;49.366;8.530;2022-12-05T15:10:51;6.00;99.90
5802;DHT22;2927;49.366;8.530;2022-12-05T15:13:20;5.90;66.70
5802;DHT22;2927;49.366;8.530;2022-12-05T15:16:06;6.00;99.80
5802;DHT22;2927;49.366;8.530;2022-12-05T15:18:41;6.00;51.50
5802;DHT22;2927;49.366;8.530;2022-12-05T15:21:25;6.00;77.40
5802;DHT22;2927;49.366;8.530;2022-12-05T15:24:01;6.20;90.60
5802;DHT22;2927;49.366;8.530;2022-12-05T15:26:33;6.10;30.40
5802;DHT22;2927;49.366;8.530;2022-12-05T15:37:15;5.80;99.30
5802;DHT22;2927;49.366;8.530;2022-12-05T15:40:02;5.80;93.70
5802;DHT22;2927;49.366;8.530;2022-12-05T15:45:19;5.70;99.30
5802;DHT22;2927;49.366;8.530;2022-12-05T15:47:48;5.70;97.20
5802;DHT22;2927;49.366;8.530;2022-12-05T15:53:10;5.60;99.90
5802;DHT22;2927;49.366;8.530;2022-12-05T15:55:42;5.60;99.90
5802;DHT22;2927;49.366;8.530;2022-12-05T15:58:19;5.60;99.90
5802;DHT22;2927;49.366;8.530;2022-12-05T16:00:48;5.70;99.90
5802;DHT22;2927;49.366;8.530;2022-12-05T16:06:08;5.70;99.90
5802;DHT22;2927;49.366;8.530;2022-12-05T16:08:35;5.70;99.90
5802;DHT22;2927;49.366;8.530;2022-12-05T16:11:08;5.60;99.90
5802;DHT22;2927;49.366;8.530;2022-12-05T16:13:34;5.60;99.90
5802;DHT22;2927;49.366;8.530;2022-12-05T16:15:59;5.50;99.90
5802;DHT22;2927;49.366;8.530;2022-12-05T16:18:30;5.40;99.90
5802;DHT22;2927;49.366;8.530;2022-12-05T16:20:56;5.40;99.90
5802;DHT22;2927;49.366;8.530;2022-12-05T16:23:24;5.40;99.90
5802;DHT22;2927;49.366;8.530;2022-12-05T16:25:50;5.40;99.90
5802;DHT22;2927;49.366;8.530;2022-12-05T16:28:18;5.50;99.90
5802;DHT22;2927;49.366;8.530;2022-12-05T16:30:59;5.50;99.90
5802;DHT22;2927;49.366;8.530;2022-12-05T16:33:27;5.50;99.90
5802;DHT22;2927;49.366;8.530;2022-12-05T16:35:53;5.40;99.90
5802;DHT22;2927;49.366;8.530;2022-12-05T16:38:20;5.40;99.90
5802;DHT22;2927;49.366;8.530;2022-12-05T16:45:48;5.50;99.90
5802;DHT22;2927;49.366;8.530;2022-12-05T16:48:30;5.40;99.90
5802;DHT22;2927;49.366;8.530;2022-12-05T16:51:16;5.40;99.90
5802;DHT22;2927;49.366;8.530;2022-12-05T16:53:44;5.40;99.90
5802;DHT22;2927;49.366;8.530;2022-12-05T16:56:14;5.40;99.90
5802;DHT22;2927;49.366;8.530;2022-12-05T16:58:40;5.40;99.90
5802;DHT22;2927;49.366;8.530;2022-12-05T17:01:06;5.40;99.90
5802;DHT22;2927;49.366;8.530;2022-12-05T17:03:33;5.40;99.90
5802;DHT22;2927;49.366;8.530;2022-12-05T17:05:59;5.40;99.90
5802;DHT22;2927;49.366;8.530;2022-12-05T17:08:25;5.40;99.90
5802;DHT22;2927;49.366;8.530;2022-12-05T17:10:51;5.40;96.00
5802;DHT22;2927;49.366;8.530;2022-12-05T17:13:18;5.40;83.60
5802;DHT22;2927;49.366;8.530;2022-12-05T17:15:44;5.40;17.40
5802;DHT22;2927;49.366;8.530;2022-12-05T17:18:15;5.40;1.00
5802;DHT22;2927;49.366;8.530;2022-12-05T17:20:43;5.40;1.00
5802;DHT22;2927;49.366;8.530;2022-12-05T17:23:13;5.40;1.00
5802;DHT22;2927;49.366;8.530;2022-12-05T17:25:45;5.40;1.00
5802;DHT22;2927;49.366;8.530;2022-12-05T17:28:12;5.40;30.70
5802;DHT22;2927;49.366;8.530;2022-12-05T17:30:37;5.40;50.00
5802;DHT22;2927;49.366;8.530;2022-12-05T17:33:04;5.40;13.50
5802;DHT22;2927;49.366;8.530;2022-12-05T17:35:30;5.40;1.00
5802;DHT22;2927;49.366;8.530;2022-12-05T17:37:56;5.30;1.00
5802;DHT22;2927;49.366;8.530;2022-12-05T17:40:22;5.30;1.00
5802;DHT22;2927;49.366;8.530;2022-12-05T17:42:47;5.40;1.00
5802;DHT22;2927;49.366;8.530;2022-12-05T17:45:15;5.40;1.00
5802;DHT22;2927;49.366;8.530;2022-12-05T17:47:42;5.40;1.00
5802;DHT22;2927;49.366;8.530;2022-12-05T17:50:16;5.40;1.00
5802;DHT22;2927;49.366;8.530;2022-12-05T17:52:42;5.40;27.30
5802;DHT22;2927;49.366;8.530;2022-12-05T17:55:23;5.40;34.90
5802;DHT22;2927;49.366;8.530;2022-12-05T17:57:49;5.40;28.70
5802;DHT22;2927;49.366;8.530;2022-12-05T18:00:16;5.40;42.80
5802;DHT22;2927;49.366;8.530;2022-12-05T18:02:43;5.40;56.90
5802;DHT22;2927;49.366;8.530;2022-12-05T18:05:11;5.40;45.20
5802;DHT22;2927;49.366;8.530;2022-12-05T18:07:38;5.40;55.60
5802;DHT22;2927;49.366;8.530;2022-12-05T18:10:09;5.50;60.50
5802;DHT22;2927;49.366;8.530;2022-12-05T18:12:35;5.50;54.90
5802;DHT22;2927;49.366;8.530;2022-12-05T18:15:01;5.50;46.40
5802;DHT22;2927;49.366;8.530;2022-12-05T18:17:26;5.50;47.90
5802;DHT22;2927;49.366;8.530;2022-12-05T18:19:53;5.50;55.90
5802;DHT22;2927;49.366;8.530;2022-12-05T18:22:23;5.50;35.10
5802;DHT22;2927;49.366;8.530;2022-12-05T18:24:50;5.50;17.60
5802;DHT22;2927;49.366;8.530;2022-12-05T18:27:16;5.40;28.20
5802;DHT22;2927;49.366;8.530;2022-12-05T18:29:41;5.40;56.70
5802;DHT22;2927;49.366;8.530;2022-12-05T18:32:07;5.40;64.30
5802;DHT22;2927;49.366;8.530;2022-12-05T18:34:32;5.40;91.50
5802;DHT22;2927;49.366;8.530;2022-12-05T18:36:58;5.40;62.60
5802;DHT22;2927;49.366;8.530;2022-12-05T18:39:23;5.40;71.50
5802;DHT22;2927;49.366;8.530;2022-12-05T18:41:49;5.40;96.10
5802;DHT22;2927;49.366;8.530;2022-12-05T18:44:15;5.50;99.90
5802;DHT22;2927;49.366;8.530;2022-12-05T18:46:40;5.40;94.70
5802;DHT22;2927;49.366;8.530;2022-12-05T18:49:06;5.40;99.20
5802;DHT22;2927;49.366;8.530;2022-12-05T18:51:32;5.40;99.90
5802;DHT22;2927;49.366;8.530;2022-12-05T18:53:58;5.30;99.90
5802;DHT22;2927;49.366;8.530;2022-12-05T18:56:28;5.30;99.90
5802;DHT22;2927;49.366;8.530;2022-12-05T18:58:59;5.40;99.90
5802;DHT22;2927;49.366;8.530;2022-12-05T19:01:27;5.40;99.90
5802;DHT22;2927;49.366;8.530;2022-12-05T19:03:57;5.40;99.90
5802;DHT22;2927;49.366;8.530;2022-12-05T19:06:26;5.40;99.90
5802;DHT22;2927;49.366;8.530;2022-12-05T19:09:00;5.40;99.90
5802;DHT22;2927;49.366;8.530;2022-12-05T19:11:27;5.40;99.90
5802;DHT22;2927;49.366;8.530;2022-12-05T19:13:57;5.40;99.90
5802;DHT22;2927;49.366;8.530;2022-12-05T19:16:23;5.40;99.90
5802;DHT22;2927;49.366;8.530;2022-12-05T19:18:53;5.40;99.90
5802;DHT22;2927;49.366;8.530;2022-12-05T19:21:19;5.40;99.90